sensor_id;sensor_type;location;lat;lon;timestamp;P1;durP1;ratioP1;P2;durP2;ratioP2
45909;SDS011;31622;55.416;37.840;2022-12-31T14:01:37;345.80;;;171.88;;
45909;SDS011;31622;55.416;37.840;2022-12-31T14:06:52;253.15;;;135.63;;
45909;SDS011;31622;55.416;37.840;2022-12-31T14:09:27;228.57;;;119.78;;
45909;SDS011;31622;55.416;37.840;2022-12-31T14:20:17;156.60;;;80.78;;
45909;SDS011;31622;55.416;37.840;2022-12-31T14:28:19;113.57;;;62.90;;
45909;SDS011;31622;55.416;37.840;2022-12-31T14:30:49;120.90;;;63.47;;
45909;SDS011;31622;55.416;37.840;2022-12-31T14:33:33;112.93;;;57.60;;
45909;SDS011;31622;55.416;37.840;2022-12-31T14:36:06;104.78;;;56.28;;
45909;SDS011;31622;55.416;37.840;2022-12-31T14:50:04;67.28;;;37.72;;
45909;SDS011;31622;55.416;37.840;2022-12-31T14:52:34;71.63;;;35.17;;
45909;SDS011;31622;55.416;37.840;2022-12-31T15:00:23;58.58;;;30.02;;
45909;SDS011;31622;55.416;37.840;2022-12-31T15:03:03;51.33;;;28.63;;
45909;SDS011;31622;55.416;37.840;2022-12-31T15:05:48;44.92;;;25.85;;
45909;SDS011;31622;55.416;37.840;2022-12-31T15:08:46;40.80;;;24.58;;
45909;SDS011;31622;55.416;37.840;2022-12-31T15:11:40;42.78;;;23.60;;
45909;SDS011;31622;55.416;37.840;2022-12-31T15:25:20;31.92;;;17.85;;
45909;SDS011;31622;55.416;37.840;2022-12-31T15:27:49;27.58;;;17.33;;
45909;SDS011;31622;55.416;37.840;2022-12-31T15:35:56;26.45;;;14.38;;
45909;SDS011;31622;55.416;37.840;2022-12-31T15:38:35;22.70;;;12.63;;
45909;SDS011;31622;55.416;37.840;2022-12-31T15:44:21;38.95;;;13.48;;
45909;SDS011;31622;55.416;37.840;2022-12-31T15:46:50;28.35;;;12.73;;
45909;SDS011;31622;55.416;37.840;2022-12-31T15:49:20;29.65;;;11.98;;
45909;SDS011;31622;55.416;37.840;2022-12-31T15:51:49;25.45;;;11.38;;
45909;SDS011;31622;55.416;37.840;2022-12-31T15:54:23;19.90;;;11.00;;
45909;SDS011;31622;55.416;37.840;2022-12-31T15:56:56;17.00;;;10.05;;
45909;SDS011;31622;55.416;37.840;2022-12-31T15:59:22;26.30;;;11.43;;
45909;SDS011;31622;55.416;37.840;2022-12-31T16:01:50;21.38;;;10.02;;
45909;SDS011;31622;55.416;37.840;2022-12-31T16:04:20;16.02;;;9.20;;
45909;SDS011;31622;55.416;37.840;2022-12-31T16:07:00;15.18;;;8.90;;
45909;SDS011;31622;55.416;37.840;2022-12-31T16:09:30;12.98;;;9.02;;
45909;SDS011;31622;55.416;37.840;2022-12-31T16:11:58;15.05;;;8.98;;
45909;SDS011;31622;55.416;37.840;2022-12-31T16:14:28;14.38;;;7.65;;
45909;SDS011;31622;55.416;37.840;2022-12-31T16:16:59;11.88;;;7.55;;
45909;SDS011;31622;55.416;37.840;2022-12-31T16:19:43;15.63;;;7.55;;
45909;SDS011;31622;55.416;37.840;2022-12-31T16:22:14;12.88;;;6.80;;
45909;SDS011;31622;55.416;37.840;2022-12-31T16:24:41;12.60;;;6.70;;
45909;SDS011;31622;55.416;37.840;2022-12-31T16:27:10;11.35;;;7.10;;
45909;SDS011;31622;55.416;37.840;2022-12-31T16:29:40;9.30;;;6.03;;
45909;SDS011;31622;55.416;37.840;2022-12-31T16:32:10;10.88;;;6.40;;
45909;SDS011;31622;55.416;37.840;2022-12-31T16:34:39;10.57;;;6.40;;
45909;SDS011;31622;55.416;37.840;2022-12-31T16:37:05;14.10;;;5.43;;
45909;SDS011;31622;55.416;37.840;2022-12-31T16:39:40;89.93;;;36.05;;
45909;SDS011;31622;55.416;37.840;2022-12-31T16:42:19;58.20;;;25.60;;
45909;SDS011;31622;55.416;37.840;2022-12-31T16:44:46;40.05;;;15.80;;
45909;SDS011;31622;55.416;37.840;2022-12-31T16:47:17;33.40;;;13.65;;
45909;SDS011;31622;55.416;37.840;2022-12-31T16:49:48;31.92;;;12.73;;
45909;SDS011;31622;55.416;37.840;2022-12-31T16:54:51;23.73;;;9.88;;
45909;SDS011;31622;55.416;37.840;2022-12-31T16:57:19;20.67;;;9.90;;
45909;SDS011;31622;55.416;37.840;2022-12-31T16:59:46;18.85;;;9.40;;
45909;SDS011;31622;55.416;37.840;2022-12-31T17:02:17;21.05;;;9.25;;
45909;SDS011;31622;55.416;37.840;2022-12-31T17:12:31;14.57;;;7.55;;
45909;SDS011;31622;55.416;37.840;2022-12-31T17:15:03;13.73;;;7.53;;
45909;SDS011;31622;55.416;37.840;2022-12-31T17:17:30;14.00;;;6.20;;
45909;SDS011;31622;55.416;37.840;2022-12-31T17:20:00;13.70;;;6.80;;
45909;SDS011;31622;55.416;37.840;2022-12-31T17:22:39;13.57;;;5.63;;
45909;SDS011;31622;55.416;37.840;2022-12-31T17:28:00;7.95;;;5.20;;
45909;SDS011;31622;55.416;37.840;2022-12-31T17:35:45;16.67;;;5.75;;
45909;SDS011;31622;55.416;37.840;2022-12-31T17:40:43;12.38;;;5.28;;
45909;SDS011;31622;55.416;37.840;2022-12-31T17:43:10;10.25;;;4.32;;
45909;SDS011;31622;55.416;37.840;2022-12-31T17:45:36;9.38;;;4.28;;
45909;SDS011;31622;55.416;37.840;2022-12-31T17:48:02;8.85;;;4.07;;
45909;SDS011;31622;55.416;37.840;2022-12-31T17:50:28;6.55;;;4.10;;
45909;SDS011;31622;55.416;37.840;2022-12-31T17:53:27;11.77;;;4.13;;
45909;SDS011;31622;55.416;37.840;2022-12-31T17:55:47;7.93;;;3.85;;
45909;SDS011;31622;55.416;37.840;2022-12-31T17:58:19;6.45;;;3.28;;
45909;SDS011;31622;55.416;37.840;2022-12-31T18:01:01;7.00;;;2.85;;
45909;SDS011;31622;55.416;37.840;2022-12-31T18:03:29;6.10;;;2.92;;
45909;SDS011;31622;55.416;37.840;2022-12-31T18:05:55;6.88;;;3.30;;
45909;SDS011;31622;55.416;37.840;2022-12-31T18:08:21;6.68;;;3.03;;
45909;SDS011;31622;55.416;37.840;2022-12-31T18:10:47;6.07;;;2.50;;
45909;SDS011;31622;55.416;37.840;2022-12-31T18:13:14;6.03;;;2.45;;
45909;SDS011;31622;55.416;37.840;2022-12-31T18:15:43;5.60;;;2.50;;
45909;SDS011;31622;55.416;37.840;2022-12-31T18:20:51;5.32;;;2.60;;
45909;SDS011;31622;55.416;37.840;2022-12-31T18:23:20;4.38;;;2.38;;
45909;SDS011;31622;55.416;37.840;2022-12-31T18:25:47;3.90;;;2.22;;
45909;SDS011;31622;55.416;37.840;2022-12-31T18:28:12;6.47;;;2.53;;
45909;SDS011;31622;55.416;37.840;2022-12-31T18:30:38;4.60;;;2.28;;
45909;SDS011;31622;55.416;37.840;2022-12-31T18:33:05;5.03;;;2.33;;
45909;SDS011;31622;55.416;37.840;2022-12-31T18:35:31;5.90;;;2.45;;
45909;SDS011;31622;55.416;37.840;2022-12-31T18:37:57;4.13;;;2.00;;
45909;SDS011;31622;55.416;37.840;2022-12-31T18:40:22;5.32;;;2.08;;
45909;SDS011;31622;55.416;37.840;2022-12-31T18:42:48;4.25;;;2.58;;
45909;SDS011;31622;55.416;37.840;2022-12-31T18:45:15;4.13;;;2.50;;
45909;SDS011;31622;55.416;37.840;2022-12-31T18:47:42;5.30;;;2.25;;
45909;SDS011;31622;55.416;37.840;2022-12-31T18:50:11;3.08;;;2.25;;
45909;SDS011;31622;55.416;37.840;2022-12-31T18:52:38;4.70;;;1.95;;
45909;SDS011;31622;55.416;37.840;2022-12-31T18:55:15;3.80;;;2.00;;
45909;SDS011;31622;55.416;37.840;2022-12-31T18:57:45;6.70;;;2.10;;
45909;SDS011;31622;55.416;37.840;2022-12-31T19:00:11;4.75;;;2.00;;
45909;SDS011;31622;55.416;37.840;2022-12-31T19:02:37;2.83;;;2.10;;
45909;SDS011;31622;55.416;37.840;2022-12-31T19:05:11;4.35;;;1.83;;
45909;SDS011;31622;55.416;37.840;2022-12-31T19:07:53;3.13;;;1.65;;
45909;SDS011;31622;55.416;37.840;2022-12-31T19:10:19;4.63;;;1.60;;
45909;SDS011;31622;55.416;37.840;2022-12-31T19:12:45;2.78;;;1.90;;
45909;SDS011;31622;55.416;37.840;2022-12-31T19:17:45;3.42;;;1.80;;
45909;SDS011;31622;55.416;37.840;2022-12-31T19:20:11;4.10;;;1.60;;
45909;SDS011;31622;55.416;37.840;2022-12-31T19:22:37;3.90;;;2.10;;
45909;SDS011;31622;55.416;37.840;2022-12-31T19:25:04;2.85;;;1.75;;
45909;SDS011;31622;55.416;37.840;2022-12-31T19:27:50;3.38;;;1.83;;
45909;SDS011;31622;55.416;37.840;2022-12-31T19:30:19;4.35;;;1.60;;
45909;SDS011;31622;55.416;37.840;2022-12-31T19:33:05;3.08;;;1.33;;
45909;SDS011;31622;55.416;37.840;2022-12-31T19:35:31;3.05;;;1.65;;
45909;SDS011;31622;55.416;37.840;2022-12-31T19:37:57;4.28;;;1.65;;
45909;SDS011;31622;55.416;37.840;2022-12-31T19:40:27;2.95;;;1.70;;
45909;SDS011;31622;55.416;37.840;2022-12-31T19:42:54;3.13;;;1.80;;
45909;SDS011;31622;55.416;37.840;2022-12-31T19:45:24;4.18;;;1.58;;
45909;SDS011;31622;55.416;37.840;2022-12-31T19:47:51;3.08;;;1.88;;
45909;SDS011;31622;55.416;37.840;2022-12-31T19:50:26;4.57;;;1.70;;
45909;SDS011;31622;55.416;37.840;2022-12-31T19:52:54;5.45;;;1.83;;
45909;SDS011;31622;55.416;37.840;2022-12-31T19:55:22;4.53;;;2.10;;
45909;SDS011;31622;55.416;37.840;2022-12-31T19:57:50;3.33;;;1.70;;
45909;SDS011;31622;55.416;37.840;2022-12-31T20:00:16;5.10;;;1.75;;
45909;SDS011;31622;55.416;37.840;2022-12-31T20:02:43;6.63;;;2.15;;
45909;SDS011;31622;55.416;37.840;2022-12-31T20:05:10;3.78;;;2.08;;
45909;SDS011;31622;55.416;37.840;2022-12-31T20:07:37;5.82;;;2.33;;
45909;SDS011;31622;55.416;37.840;2022-12-31T20:10:03;4.80;;;2.40;;
45909;SDS011;31622;55.416;37.840;2022-12-31T20:12:30;3.30;;;1.60;;
45909;SDS011;31622;55.416;37.840;2022-12-31T20:14:55;4.32;;;1.95;;
45909;SDS011;31622;55.416;37.840;2022-12-31T20:17:21;3.95;;;1.75;;
45909;SDS011;31622;55.416;37.840;2022-12-31T20:19:47;2.45;;;1.38;;
45909;SDS011;31622;55.416;37.840;2022-12-31T20:22:13;2.95;;;1.70;;
45909;SDS011;31622;55.416;37.840;2022-12-31T20:24:39;3.55;;;1.77;;
45909;SDS011;31622;55.416;37.840;2022-12-31T20:27:04;3.97;;;1.70;;
45909;SDS011;31622;55.416;37.840;2022-12-31T20:29:31;6.07;;;2.10;;
45909;SDS011;31622;55.416;37.840;2022-12-31T20:31:57;3.65;;;1.90;;
45909;SDS011;31622;55.416;37.840;2022-12-31T20:34:23;3.78;;;1.83;;
45909;SDS011;31622;55.416;37.840;2022-12-31T20:36:48;5.68;;;2.00;;
45909;SDS011;31622;55.416;37.840;2022-12-31T20:39:14;3.45;;;1.80;;
45909;SDS011;31622;55.416;37.840;2022-12-31T20:41:40;3.53;;;1.48;;
45909;SDS011;31622;55.416;37.840;2022-12-31T20:44:05;3.08;;;1.80;;
45909;SDS011;31622;55.416;37.840;2022-12-31T20:46:31;3.47;;;1.85;;
45909;SDS011;31622;55.416;37.840;2022-12-31T20:48:58;4.30;;;2.03;;
45909;SDS011;31622;55.416;37.840;2022-12-31T20:51:25;3.20;;;1.83;;
45909;SDS011;31622;55.416;37.840;2022-12-31T20:53:53;3.75;;;1.65;;
45909;SDS011;31622;55.416;37.840;2022-12-31T20:56:20;3.17;;;1.90;;
45909;SDS011;31622;55.416;37.840;2022-12-31T20:58:46;4.72;;;2.38;;
45909;SDS011;31622;55.416;37.840;2022-12-31T21:01:12;4.95;;;2.10;;
45909;SDS011;31622;55.416;37.840;2022-12-31T21:03:40;5.78;;;2.80;;
45909;SDS011;31622;55.416;37.840;2022-12-31T21:06:07;5.10;;;2.60;;
45909;SDS011;31622;55.416;37.840;2022-12-31T21:08:33;5.13;;;2.63;;
45909;SDS011;31622;55.416;37.840;2022-12-31T21:10:58;6.30;;;3.35;;
45909;SDS011;31622;55.416;37.840;2022-12-31T21:13:24;6.43;;;3.28;;
45909;SDS011;31622;55.416;37.840;2022-12-31T21:15:51;4.50;;;2.80;;
45909;SDS011;31622;55.416;37.840;2022-12-31T21:18:18;6.68;;;2.90;;
45909;SDS011;31622;55.416;37.840;2022-12-31T21:20:48;5.72;;;2.83;;
45909;SDS011;31622;55.416;37.840;2022-12-31T21:23:15;4.85;;;3.10;;
45909;SDS011;31622;55.416;37.840;2022-12-31T21:25:42;8.57;;;3.88;;
45909;SDS011;31622;55.416;37.840;2022-12-31T21:28:09;8.10;;;4.18;;
45909;SDS011;31622;55.416;37.840;2022-12-31T21:30:38;4.97;;;3.53;;
45909;SDS011;31622;55.416;37.840;2022-12-31T21:33:05;5.50;;;3.63;;
45909;SDS011;31622;55.416;37.840;2022-12-31T21:35:31;7.00;;;3.72;;
45909;SDS011;31622;55.416;37.840;2022-12-31T21:38:00;5.93;;;4.03;;
45909;SDS011;31622;55.416;37.840;2022-12-31T21:40:29;6.50;;;4.47;;
45909;SDS011;31622;55.416;37.840;2022-12-31T21:42:55;11.05;;;5.47;;
45909;SDS011;31622;55.416;37.840;2022-12-31T21:45:21;11.23;;;5.45;;
45909;SDS011;31622;55.416;37.840;2022-12-31T21:47:46;10.90;;;5.28;;
45909;SDS011;31622;55.416;37.840;2022-12-31T21:50:31;9.52;;;4.78;;
45909;SDS011;31622;55.416;37.840;2022-12-31T21:52:57;7.97;;;5.20;;
45909;SDS011;31622;55.416;37.840;2022-12-31T21:55:22;11.45;;;6.00;;
45909;SDS011;31622;55.416;37.840;2022-12-31T21:58:06;11.32;;;5.50;;
45909;SDS011;31622;55.416;37.840;2022-12-31T22:00:32;10.15;;;5.30;;
45909;SDS011;31622;55.416;37.840;2022-12-31T22:03:16;7.43;;;4.65;;
45909;SDS011;31622;55.416;37.840;2022-12-31T22:05:56;6.80;;;4.40;;
45909;SDS011;31622;55.416;37.840;2022-12-31T22:08:46;9.00;;;4.68;;
45909;SDS011;31622;55.416;37.840;2022-12-31T22:11:13;9.80;;;5.03;;
45909;SDS011;31622;55.416;37.840;2022-12-31T22:13:41;9.30;;;4.72;;
45909;SDS011;31622;55.416;37.840;2022-12-31T22:16:07;8.50;;;4.93;;
45909;SDS011;31622;55.416;37.840;2022-12-31T22:18:33;9.05;;;4.57;;
45909;SDS011;31622;55.416;37.840;2022-12-31T22:21:13;7.03;;;4.25;;
45909;SDS011;31622;55.416;37.840;2022-12-31T22:23:40;6.82;;;3.60;;
45909;SDS011;31622;55.416;37.840;2022-12-31T22:26:07;6.30;;;4.10;;
45909;SDS011;31622;55.416;37.840;2022-12-31T22:28:34;6.45;;;4.05;;
45909;SDS011;31622;55.416;37.840;2022-12-31T22:31:02;6.78;;;3.88;;
45909;SDS011;31622;55.416;37.840;2022-12-31T22:33:27;6.55;;;3.95;;
45909;SDS011;31622;55.416;37.840;2022-12-31T22:36:03;6.70;;;3.80;;
45909;SDS011;31622;55.416;37.840;2022-12-31T22:38:31;6.97;;;4.40;;
45909;SDS011;31622;55.416;37.840;2022-12-31T22:41:01;5.90;;;3.58;;
45909;SDS011;31622;55.416;37.840;2022-12-31T22:43:28;6.28;;;4.10;;
45909;SDS011;31622;55.416;37.840;2022-12-31T22:45:55;5.95;;;3.80;;
45909;SDS011;31622;55.416;37.840;2022-12-31T22:48:20;5.95;;;4.03;;
45909;SDS011;31622;55.416;37.840;2022-12-31T22:50:52;9.23;;;3.50;;
45909;SDS011;31622;55.416;37.840;2022-12-31T22:53:19;5.38;;;3.33;;
45909;SDS011;31622;55.416;37.840;2022-12-31T22:55:45;6.25;;;4.10;;
45909;SDS011;31622;55.416;37.840;2022-12-31T22:58:10;5.03;;;3.53;;
45909;SDS011;31622;55.416;37.840;2022-12-31T23:00:37;7.43;;;4.30;;
45909;SDS011;31622;55.416;37.840;2022-12-31T23:03:04;6.45;;;3.83;;
45909;SDS011;31622;55.416;37.840;2022-12-31T23:05:30;6.35;;;4.18;;
45909;SDS011;31622;55.416;37.840;2022-12-31T23:07:58;6.03;;;2.97;;
45909;SDS011;31622;55.416;37.840;2022-12-31T23:10:23;5.68;;;3.42;;
45909;SDS011;31622;55.416;37.840;2022-12-31T23:13:08;5.95;;;3.58;;
45909;SDS011;31622;55.416;37.840;2022-12-31T23:15:52;4.47;;;3.20;;
45909;SDS011;31622;55.416;37.840;2022-12-31T23:18:36;6.00;;;3.22;;
45909;SDS011;31622;55.416;37.840;2022-12-31T23:21:20;5.57;;;3.08;;
45909;SDS011;31622;55.416;37.840;2022-12-31T23:24:05;6.38;;;3.13;;
45909;SDS011;31622;55.416;37.840;2022-12-31T23:26:30;5.18;;;2.90;;
45909;SDS011;31622;55.416;37.840;2022-12-31T23:28:56;8.38;;;3.10;;
45909;SDS011;31622;55.416;37.840;2022-12-31T23:31:22;5.03;;;3.10;;
45909;SDS011;31622;55.416;37.840;2022-12-31T23:33:53;4.63;;;2.70;;
45909;SDS011;31622;55.416;37.840;2022-12-31T23:36:19;4.43;;;2.80;;
45909;SDS011;31622;55.416;37.840;2022-12-31T23:38:45;4.70;;;2.85;;
45909;SDS011;31622;55.416;37.840;2022-12-31T23:41:11;5.40;;;3.20;;
45909;SDS011;31622;55.416;37.840;2022-12-31T23:43:38;5.32;;;3.10;;
45909;SDS011;31622;55.416;37.840;2022-12-31T23:46:03;4.80;;;3.08;;
45909;SDS011;31622;55.416;37.840;2022-12-31T23:48:29;3.97;;;2.67;;
45909;SDS011;31622;55.416;37.840;2022-12-31T23:50:55;4.85;;;2.67;;
45909;SDS011;31622;55.416;37.840;2022-12-31T23:53:23;6.15;;;3.17;;
45909;SDS011;31622;55.416;37.840;2022-12-31T23:55:50;5.00;;;3.30;;
45909;SDS011;31622;55.416;37.840;2022-12-31T23:58:16;4.35;;;2.60;;
